sensor_id;sensor_type;location;lat;lon;timestamp;pressure;altitude;pressure_sealevel;temperature;humidity
10652;BME280;5374;42.742;23.266;2023-07-13T00:01:32;95656.41;;;22.86;77.60
10652;BME280;5374;42.742;23.266;2023-07-13T00:04:21;95661.97;;;22.90;78.09
10652;BME280;5374;42.742;23.266;2023-07-13T00:07:12;95657.34;;;22.90;79.26
10652;BME280;5374;42.742;23.266;2023-07-13T00:10:00;95647.69;;;22.80;79.73
10652;BME280;5374;42.742;23.266;2023-07-13T00:12:48;95652.91;;;22.77;80.40
10652;BME280;5374;42.742;23.266;2023-07-13T00:15:36;95654.03;;;22.76;80.84
10652;BME280;5374;42.742;23.266;2023-07-13T00:18:23;95652.44;;;22.75;81.41
10652;BME280;5374;42.742;23.266;2023-07-13T00:21:11;95643.19;;;22.67;81.92
10652;BME280;5374;42.742;23.266;2023-07-13T00:24:00;95644.63;;;22.65;82.39
10652;BME280;5374;42.742;23.266;2023-07-13T00:26:47;95626.66;;;22.51;82.88
10652;BME280;5374;42.742;23.266;2023-07-13T00:29:34;95641.00;;;22.52;83.10
10652;BME280;5374;42.742;23.266;2023-07-13T00:32:22;95630.66;;;22.45;83.16
10652;BME280;5374;42.742;23.266;2023-07-13T00:35:13;95635.91;;;22.50;84.01
10652;BME280;5374;42.742;23.266;2023-07-13T00:38:01;95633.84;;;22.47;84.47
10652;BME280;5374;42.742;23.266;2023-07-13T00:40:50;95650.72;;;22.44;84.55
10652;BME280;5374;42.742;23.266;2023-07-13T00:43:37;95640.19;;;22.43;85.21
10652;BME280;5374;42.742;23.266;2023-07-13T00:46:26;95642.75;;;22.39;85.34
10652;BME280;5374;42.742;23.266;2023-07-13T00:49:17;95637.03;;;22.32;86.23
10652;BME280;5374;42.742;23.266;2023-07-13T00:52:07;95639.75;;;22.32;86.67
10652;BME280;5374;42.742;23.266;2023-07-13T00:54:56;95621.28;;;22.26;87.72
10652;BME280;5374;42.742;23.266;2023-07-13T00:57:45;95637.19;;;22.27;87.65
10652;BME280;5374;42.742;23.266;2023-07-13T01:00:33;95628.28;;;22.18;87.76
10652;BME280;5374;42.742;23.266;2023-07-13T01:03:21;95631.78;;;22.18;87.78
10652;BME280;5374;42.742;23.266;2023-07-13T01:06:09;95630.81;;;22.14;87.99
10652;BME280;5374;42.742;23.266;2023-07-13T01:08:57;95625.75;;;22.13;88.29
10652;BME280;5374;42.742;23.266;2023-07-13T01:11:44;95629.88;;;22.10;88.21
10652;BME280;5374;42.742;23.266;2023-07-13T01:14:33;95637.19;;;22.10;88.20
10652;BME280;5374;42.742;23.266;2023-07-13T01:17:20;95601.53;;;21.91;88.64
10652;BME280;5374;42.742;23.266;2023-07-13T01:20:08;95640.06;;;22.05;88.47
10652;BME280;5374;42.742;23.266;2023-07-13T01:22:57;95626.66;;;22.00;88.42
10652;BME280;5374;42.742;23.266;2023-07-13T01:25:45;95634.13;;;21.94;87.97
10652;BME280;5374;42.742;23.266;2023-07-13T01:28:32;95628.09;;;21.89;87.37
10652;BME280;5374;42.742;23.266;2023-07-13T01:31:22;95610.56;;;21.77;86.60
10652;BME280;5374;42.742;23.266;2023-07-13T01:34:10;95630.47;;;21.81;85.64
10652;BME280;5374;42.742;23.266;2023-07-13T01:36:57;95618.03;;;21.72;84.47
10652;BME280;5374;42.742;23.266;2023-07-13T01:39:45;95626.13;;;21.63;84.03
10652;BME280;5374;42.742;23.266;2023-07-13T01:42:32;95623.75;;;21.62;83.66
10652;BME280;5374;42.742;23.266;2023-07-13T01:45:19;95610.19;;;21.53;83.47
10652;BME280;5374;42.742;23.266;2023-07-13T01:48:06;95625.00;;;21.56;83.34
10652;BME280;5374;42.742;23.266;2023-07-13T01:50:54;95608.88;;;21.33;83.81
10652;BME280;5374;42.742;23.266;2023-07-13T01:53:41;95627.22;;;21.45;84.33
10652;BME280;5374;42.742;23.266;2023-07-13T01:56:29;95631.81;;;21.44;84.63
10652;BME280;5374;42.742;23.266;2023-07-13T01:59:16;95626.25;;;21.41;85.17
10652;BME280;5374;42.742;23.266;2023-07-13T02:02:04;95625.41;;;21.32;85.12
10652;BME280;5374;42.742;23.266;2023-07-13T02:04:51;95622.84;;;21.27;85.06
10652;BME280;5374;42.742;23.266;2023-07-13T02:07:38;95630.44;;;21.25;85.30
10652;BME280;5374;42.742;23.266;2023-07-13T02:10:26;95643.50;;;21.31;85.64
10652;BME280;5374;42.742;23.266;2023-07-13T02:13:15;95635.06;;;21.24;85.98
10652;BME280;5374;42.742;23.266;2023-07-13T02:16:03;95630.31;;;21.30;86.05
10652;BME280;5374;42.742;23.266;2023-07-13T02:18:50;95638.09;;;21.23;86.24
10652;BME280;5374;42.742;23.266;2023-07-13T02:21:37;95642.50;;;21.19;86.96
10652;BME280;5374;42.742;23.266;2023-07-13T02:24:25;95646.75;;;21.11;87.04
10652;BME280;5374;42.742;23.266;2023-07-13T02:27:13;95647.84;;;21.10;86.86
10652;BME280;5374;42.742;23.266;2023-07-13T02:30:01;95654.34;;;21.09;87.29
10652;BME280;5374;42.742;23.266;2023-07-13T02:32:48;95647.34;;;21.08;87.06
10652;BME280;5374;42.742;23.266;2023-07-13T02:35:35;95657.03;;;21.00;87.29
10652;BME280;5374;42.742;23.266;2023-07-13T02:38:23;95660.03;;;20.99;86.80
10652;BME280;5374;42.742;23.266;2023-07-13T02:41:10;95642.19;;;20.89;87.09
10652;BME280;5374;42.742;23.266;2023-07-13T02:43:58;95655.06;;;20.92;87.26
10652;BME280;5374;42.742;23.266;2023-07-13T02:46:50;95650.91;;;20.86;88.26
10652;BME280;5374;42.742;23.266;2023-07-13T02:49:37;95655.69;;;20.89;88.63
10652;BME280;5374;42.742;23.266;2023-07-13T02:52:24;95651.41;;;20.88;88.31
10652;BME280;5374;42.742;23.266;2023-07-13T02:55:12;95649.94;;;20.82;88.98
10652;BME280;5374;42.742;23.266;2023-07-13T02:57:59;95648.97;;;20.78;88.87
10652;BME280;5374;42.742;23.266;2023-07-13T03:00:47;95650.91;;;20.86;89.44
10652;BME280;5374;42.742;23.266;2023-07-13T03:03:37;95660.72;;;20.82;89.35
10652;BME280;5374;42.742;23.266;2023-07-13T03:06:24;95663.41;;;20.82;89.57
10652;BME280;5374;42.742;23.266;2023-07-13T03:09:16;95659.63;;;20.83;89.44
10652;BME280;5374;42.742;23.266;2023-07-13T03:12:03;95659.78;;;20.78;90.22
10652;BME280;5374;42.742;23.266;2023-07-13T03:14:50;95656.28;;;20.77;90.36
10652;BME280;5374;42.742;23.266;2023-07-13T03:17:38;95641.00;;;20.73;90.03
10652;BME280;5374;42.742;23.266;2023-07-13T03:20:27;95661.88;;;20.90;90.27
10652;BME280;5374;42.742;23.266;2023-07-13T03:23:14;95667.47;;;20.93;90.34
10652;BME280;5374;42.742;23.266;2023-07-13T03:26:04;95666.19;;;20.91;90.61
10652;BME280;5374;42.742;23.266;2023-07-13T03:28:52;95664.00;;;21.01;90.02
10652;BME280;5374;42.742;23.266;2023-07-13T03:31:39;95671.19;;;21.06;89.49
10652;BME280;5374;42.742;23.266;2023-07-13T03:34:26;95677.13;;;21.16;89.63
10652;BME280;5374;42.742;23.266;2023-07-13T03:37:15;95670.50;;;21.23;89.30
10652;BME280;5374;42.742;23.266;2023-07-13T03:40:02;95678.16;;;21.29;88.56
10652;BME280;5374;42.742;23.266;2023-07-13T03:42:50;95679.78;;;21.39;87.30
10652;BME280;5374;42.742;23.266;2023-07-13T03:45:37;95667.44;;;21.55;86.92
10652;BME280;5374;42.742;23.266;2023-07-13T03:48:24;95670.28;;;22.07;84.01
10652;BME280;5374;42.742;23.266;2023-07-13T03:51:13;95664.84;;;22.76;80.04
10652;BME280;5374;42.742;23.266;2023-07-13T03:54:03;95656.88;;;23.43;75.46
10652;BME280;5374;42.742;23.266;2023-07-13T03:56:50;95665.47;;;24.04;72.00
10652;BME280;5374;42.742;23.266;2023-07-13T03:59:37;95664.31;;;24.56;69.65
10652;BME280;5374;42.742;23.266;2023-07-13T04:02:24;95656.75;;;24.94;67.74
10652;BME280;5374;42.742;23.266;2023-07-13T04:05:11;95657.78;;;25.47;65.29
10652;BME280;5374;42.742;23.266;2023-07-13T04:07:58;95655.75;;;25.93;63.49
10652;BME280;5374;42.742;23.266;2023-07-13T04:10:47;95648.78;;;26.32;61.74
10652;BME280;5374;42.742;23.266;2023-07-13T04:13:34;95654.19;;;26.72;60.07
10652;BME280;5374;42.742;23.266;2023-07-13T04:16:21;95644.53;;;27.02;58.87
10652;BME280;5374;42.742;23.266;2023-07-13T04:19:08;95664.59;;;27.41;57.34
10652;BME280;5374;42.742;23.266;2023-07-13T04:21:56;95673.44;;;27.66;56.13
10652;BME280;5374;42.742;23.266;2023-07-13T04:24:43;95671.47;;;27.82;55.49
10652;BME280;5374;42.742;23.266;2023-07-13T04:27:32;95671.47;;;27.98;55.60
10652;BME280;5374;42.742;23.266;2023-07-13T04:30:19;95669.75;;;28.25;54.44
10652;BME280;5374;42.742;23.266;2023-07-13T04:33:07;95671.28;;;28.42;53.45
10652;BME280;5374;42.742;23.266;2023-07-13T04:35:55;95679.78;;;28.75;52.74
10652;BME280;5374;42.742;23.266;2023-07-13T04:38:43;95683.59;;;29.09;51.25
10652;BME280;5374;42.742;23.266;2023-07-13T04:41:30;95668.72;;;29.30;50.85
10652;BME280;5374;42.742;23.266;2023-07-13T04:44:19;95685.16;;;29.75;49.66
10652;BME280;5374;42.742;23.266;2023-07-13T04:47:06;95689.97;;;30.05;48.06
10652;BME280;5374;42.742;23.266;2023-07-13T04:49:53;95704.53;;;30.39;47.70
10652;BME280;5374;42.742;23.266;2023-07-13T04:52:41;95723.25;;;30.89;45.74
10652;BME280;5374;42.742;23.266;2023-07-13T04:55:29;95716.47;;;31.87;42.96
10652;BME280;5374;42.742;23.266;2023-07-13T04:58:16;95723.53;;;33.12;40.64
10652;BME280;5374;42.742;23.266;2023-07-13T05:01:05;95726.09;;;34.13;39.34
10652;BME280;5374;42.742;23.266;2023-07-13T05:03:54;95732.59;;;35.15;36.44
10652;BME280;5374;42.742;23.266;2023-07-13T05:06:44;95721.59;;;36.33;34.79
10652;BME280;5374;42.742;23.266;2023-07-13T05:09:31;95716.72;;;37.16;33.47
10652;BME280;5374;42.742;23.266;2023-07-13T05:12:18;95728.84;;;38.10;31.59
10652;BME280;5374;42.742;23.266;2023-07-13T05:15:06;95737.09;;;38.63;31.04
10652;BME280;5374;42.742;23.266;2023-07-13T05:17:55;95733.09;;;39.44;29.41
10652;BME280;5374;42.742;23.266;2023-07-13T05:20:42;95739.50;;;39.96;28.83
10652;BME280;5374;42.742;23.266;2023-07-13T05:23:30;95736.66;;;40.16;28.46
10652;BME280;5374;42.742;23.266;2023-07-13T05:26:18;95735.09;;;39.63;28.58
10652;BME280;5374;42.742;23.266;2023-07-13T05:29:06;95736.47;;;38.52;29.70
10652;BME280;5374;42.742;23.266;2023-07-13T05:31:53;95747.34;;;38.67;29.97
10652;BME280;5374;42.742;23.266;2023-07-13T05:34:42;95740.94;;;38.70;30.13
10652;BME280;5374;42.742;23.266;2023-07-13T05:37:30;95727.47;;;38.45;30.38
10652;BME280;5374;42.742;23.266;2023-07-13T05:40:17;95743.97;;;38.32;30.66
10652;BME280;5374;42.742;23.266;2023-07-13T05:43:04;95732.47;;;38.07;31.31
10652;BME280;5374;42.742;23.266;2023-07-13T05:45:53;95734.63;;;37.72;31.40
10652;BME280;5374;42.742;23.266;2023-07-13T05:48:41;95741.69;;;37.46;31.51
10652;BME280;5374;42.742;23.266;2023-07-13T05:51:29;95734.34;;;37.33;31.74
10652;BME280;5374;42.742;23.266;2023-07-13T05:54:17;95725.94;;;37.06;31.97
10652;BME280;5374;42.742;23.266;2023-07-13T05:57:05;95725.50;;;36.77;32.27
10652;BME280;5374;42.742;23.266;2023-07-13T05:59:52;95723.53;;;36.36;33.55
10652;BME280;5374;42.742;23.266;2023-07-13T06:02:39;95726.59;;;36.45;32.73
10652;BME280;5374;42.742;23.266;2023-07-13T06:05:26;95738.50;;;36.39;32.45
10652;BME280;5374;42.742;23.266;2023-07-13T06:08:16;95738.63;;;36.28;32.31
10652;BME280;5374;42.742;23.266;2023-07-13T06:11:04;95747.31;;;36.23;32.80
10652;BME280;5374;42.742;23.266;2023-07-13T06:13:52;95739.38;;;36.32;31.55
10652;BME280;5374;42.742;23.266;2023-07-13T06:16:40;95696.84;;;36.12;31.93
10652;BME280;5374;42.742;23.266;2023-07-13T06:19:28;95730.13;;;36.46;31.61
10652;BME280;5374;42.742;23.266;2023-07-13T06:22:16;95732.03;;;36.56;32.01
10652;BME280;5374;42.742;23.266;2023-07-13T06:25:06;95741.38;;;36.73;31.93
10652;BME280;5374;42.742;23.266;2023-07-13T06:27:54;95736.84;;;36.86;31.98
10652;BME280;5374;42.742;23.266;2023-07-13T06:30:42;95731.28;;;36.89;31.62
10652;BME280;5374;42.742;23.266;2023-07-13T06:33:30;95730.03;;;36.94;31.54
10652;BME280;5374;42.742;23.266;2023-07-13T06:36:18;95717.31;;;37.00;31.43
10652;BME280;5374;42.742;23.266;2023-07-13T06:39:06;95724.31;;;37.08;32.00
10652;BME280;5374;42.742;23.266;2023-07-13T06:41:55;95732.91;;;37.21;32.13
10652;BME280;5374;42.742;23.266;2023-07-13T06:44:43;95717.81;;;37.25;31.06
10652;BME280;5374;42.742;23.266;2023-07-13T06:47:32;95712.47;;;37.08;31.41
10652;BME280;5374;42.742;23.266;2023-07-13T06:50:31;95723.50;;;37.11;32.18
10652;BME280;5374;42.742;23.266;2023-07-13T06:53:32;95725.38;;;37.21;31.94
10652;BME280;5374;42.742;23.266;2023-07-13T06:56:19;95721.03;;;37.20;31.19
10652;BME280;5374;42.742;23.266;2023-07-13T06:59:08;95734.91;;;37.20;31.45
10652;BME280;5374;42.742;23.266;2023-07-13T07:01:55;95718.59;;;37.26;32.46
10652;BME280;5374;42.742;23.266;2023-07-13T07:04:42;95706.75;;;37.25;32.05
10652;BME280;5374;42.742;23.266;2023-07-13T07:07:31;95725.47;;;37.45;32.78
10652;BME280;5374;42.742;23.266;2023-07-13T07:10:19;95726.75;;;37.67;31.67
10652;BME280;5374;42.742;23.266;2023-07-13T07:13:06;95702.53;;;37.71;30.38
10652;BME280;5374;42.742;23.266;2023-07-13T07:15:55;95689.28;;;37.82;31.58
10652;BME280;5374;42.742;23.266;2023-07-13T07:18:42;95707.88;;;37.55;31.05
10652;BME280;5374;42.742;23.266;2023-07-13T07:21:30;95714.16;;;37.59;31.93
10652;BME280;5374;42.742;23.266;2023-07-13T07:24:18;95710.91;;;37.68;31.83
10652;BME280;5374;42.742;23.266;2023-07-13T07:27:05;95689.91;;;37.93;31.94
10652;BME280;5374;42.742;23.266;2023-07-13T07:29:53;95699.38;;;38.19;31.95
10652;BME280;5374;42.742;23.266;2023-07-13T07:32:42;95699.91;;;37.87;31.11
10652;BME280;5374;42.742;23.266;2023-07-13T07:35:29;95702.44;;;38.02;30.95
10652;BME280;5374;42.742;23.266;2023-07-13T07:38:16;95695.56;;;38.10;32.28
10652;BME280;5374;42.742;23.266;2023-07-13T07:41:04;95692.94;;;38.26;31.28
10652;BME280;5374;42.742;23.266;2023-07-13T07:43:51;95693.03;;;38.42;30.63
10652;BME280;5374;42.742;23.266;2023-07-13T07:46:39;95692.97;;;38.46;30.51
10652;BME280;5374;42.742;23.266;2023-07-13T07:49:28;95673.47;;;38.49;30.89
10652;BME280;5374;42.742;23.266;2023-07-13T07:52:15;95680.50;;;38.57;30.69
10652;BME280;5374;42.742;23.266;2023-07-13T07:55:03;95678.44;;;38.61;30.61
10652;BME280;5374;42.742;23.266;2023-07-13T07:57:51;95676.28;;;38.69;30.37
10652;BME280;5374;42.742;23.266;2023-07-13T08:00:38;95675.59;;;38.85;30.15
10652;BME280;5374;42.742;23.266;2023-07-13T08:03:26;95650.44;;;38.72;31.38
10652;BME280;5374;42.742;23.266;2023-07-13T08:06:24;95672.94;;;38.97;29.95
10652;BME280;5374;42.742;23.266;2023-07-13T08:09:11;95674.66;;;39.11;29.95
10652;BME280;5374;42.742;23.266;2023-07-13T08:11:58;95662.13;;;38.63;30.08
10652;BME280;5374;42.742;23.266;2023-07-13T08:14:49;95668.59;;;38.77;30.39
10652;BME280;5374;42.742;23.266;2023-07-13T08:17:45;95658.22;;;38.81;30.99
10652;BME280;5374;42.742;23.266;2023-07-13T08:20:32;95627.84;;;38.50;30.37
10652;BME280;5374;42.742;23.266;2023-07-13T08:23:25;95628.72;;;38.67;31.08
10652;BME280;5374;42.742;23.266;2023-07-13T08:26:12;95642.75;;;38.60;30.29
10652;BME280;5374;42.742;23.266;2023-07-13T08:29:06;95649.53;;;38.16;32.06
10652;BME280;5374;42.742;23.266;2023-07-13T08:31:53;95641.47;;;37.75;31.35
10652;BME280;5374;42.742;23.266;2023-07-13T08:34:41;95637.69;;;37.65;32.19
10652;BME280;5374;42.742;23.266;2023-07-13T08:37:28;95632.28;;;38.01;31.02
10652;BME280;5374;42.742;23.266;2023-07-13T08:40:19;95639.72;;;38.08;30.86
10652;BME280;5374;42.742;23.266;2023-07-13T08:43:15;95635.28;;;38.14;31.09
10652;BME280;5374;42.742;23.266;2023-07-13T08:46:06;95636.66;;;38.45;32.09
10652;BME280;5374;42.742;23.266;2023-07-13T08:48:57;95629.84;;;38.50;30.55
10652;BME280;5374;42.742;23.266;2023-07-13T08:51:47;95633.06;;;38.68;30.29
10652;BME280;5374;42.742;23.266;2023-07-13T08:54:38;95646.94;;;38.88;31.75
10652;BME280;5374;42.742;23.266;2023-07-13T08:57:32;95648.25;;;39.03;32.29
10652;BME280;5374;42.742;23.266;2023-07-13T09:00:20;95652.84;;;38.70;30.24
10652;BME280;5374;42.742;23.266;2023-07-13T09:03:16;95659.06;;;38.78;29.84
10652;BME280;5374;42.742;23.266;2023-07-13T09:06:06;95652.25;;;38.62;31.21
10652;BME280;5374;42.742;23.266;2023-07-13T09:09:01;95654.16;;;38.42;31.78
10652;BME280;5374;42.742;23.266;2023-07-13T09:11:55;95642.34;;;38.61;31.94
10652;BME280;5374;42.742;23.266;2023-07-13T09:14:48;95622.34;;;38.47;31.10
10652;BME280;5374;42.742;23.266;2023-07-13T09:17:47;95644.94;;;38.69;32.49
10652;BME280;5374;42.742;23.266;2023-07-13T09:20:42;95637.69;;;38.75;31.55
10652;BME280;5374;42.742;23.266;2023-07-13T09:23:31;95641.75;;;38.70;32.21
10652;BME280;5374;42.742;23.266;2023-07-13T09:26:20;95629.50;;;38.68;32.66
10652;BME280;5374;42.742;23.266;2023-07-13T09:29:14;95653.06;;;38.99;32.86
10652;BME280;5374;42.742;23.266;2023-07-13T09:32:07;95652.34;;;38.95;31.16
10652;BME280;5374;42.742;23.266;2023-07-13T09:34:57;95649.09;;;39.00;33.56
10652;BME280;5374;42.742;23.266;2023-07-13T09:37:49;95642.25;;;38.85;32.36
10652;BME280;5374;42.742;23.266;2023-07-13T09:40:44;95614.94;;;38.99;31.35
10652;BME280;5374;42.742;23.266;2023-07-13T09:43:34;95586.63;;;39.08;30.40
10652;BME280;5374;42.742;23.266;2023-07-13T09:46:21;95624.00;;;39.56;31.48
10652;BME280;5374;42.742;23.266;2023-07-13T09:49:11;95590.34;;;39.34;30.81
10652;BME280;5374;42.742;23.266;2023-07-13T09:52:01;95606.66;;;39.52;30.24
10652;BME280;5374;42.742;23.266;2023-07-13T09:54:51;95602.38;;;39.31;31.62
10652;BME280;5374;42.742;23.266;2023-07-13T09:57:46;95595.81;;;39.21;30.53
10652;BME280;5374;42.742;23.266;2023-07-13T10:00:34;95607.59;;;39.09;28.54
10652;BME280;5374;42.742;23.266;2023-07-13T10:03:25;95590.84;;;39.13;30.01
10652;BME280;5374;42.742;23.266;2023-07-13T10:06:15;95544.50;;;38.90;27.44
10652;BME280;5374;42.742;23.266;2023-07-13T10:09:09;95589.75;;;39.26;29.21
10652;BME280;5374;42.742;23.266;2023-07-13T10:11:59;95583.94;;;39.37;29.33
10652;BME280;5374;42.742;23.266;2023-07-13T10:14:48;95596.13;;;39.59;27.25
10652;BME280;5374;42.742;23.266;2023-07-13T10:17:36;95593.63;;;39.65;29.85
10652;BME280;5374;42.742;23.266;2023-07-13T10:20:24;95562.25;;;39.48;28.55
10652;BME280;5374;42.742;23.266;2023-07-13T10:23:19;95546.16;;;39.56;25.36
10652;BME280;5374;42.742;23.266;2023-07-13T10:26:13;95594.47;;;39.94;25.54
10652;BME280;5374;42.742;23.266;2023-07-13T10:29:05;95592.41;;;39.98;25.75
10652;BME280;5374;42.742;23.266;2023-07-13T10:31:54;95564.75;;;39.91;25.25
10652;BME280;5374;42.742;23.266;2023-07-13T10:34:44;95578.81;;;40.01;26.72
10652;BME280;5374;42.742;23.266;2023-07-13T10:37:39;95587.75;;;40.08;25.44
10652;BME280;5374;42.742;23.266;2023-07-13T10:40:34;95568.53;;;40.14;25.02
10652;BME280;5374;42.742;23.266;2023-07-13T10:43:31;95569.31;;;40.14;24.93
10652;BME280;5374;42.742;23.266;2023-07-13T10:46:20;95565.25;;;40.03;26.83
10652;BME280;5374;42.742;23.266;2023-07-13T10:49:10;95533.13;;;39.69;25.47
10652;BME280;5374;42.742;23.266;2023-07-13T10:51:59;95558.06;;;39.73;24.93
10652;BME280;5374;42.742;23.266;2023-07-13T10:54:46;95550.69;;;39.66;25.66
10652;BME280;5374;42.742;23.266;2023-07-13T10:57:42;95549.72;;;39.73;24.48
10652;BME280;5374;42.742;23.266;2023-07-13T11:00:43;95543.28;;;39.76;24.37
10652;BME280;5374;42.742;23.266;2023-07-13T11:03:32;95551.44;;;39.83;24.74
10652;BME280;5374;42.742;23.266;2023-07-13T11:06:33;95538.00;;;39.65;25.68
